Time;durP1;ratioP1;P1;durP2;ratioP2;P2;SDS_P1;SDS_P2;PMS_P1;PMS_P2;Temp;Humidity;BMP_temperature;BMP_pressure;BME280_temperature;BME280_humidity;BME280_pressure;Samples;Min_cycle;Max_cycle;Signal;HPM_P1;HPM_P2
2023/02/19 00:00:29;;;;;;;12.93;2.90;;;;;;;-142.75;100.00;77349.88;4994240;28;20093;-66
2023/02/19 00:02:56;;;;;;;;;;;;;;;-142.75;100.00;77349.88;4976700;28;20022;-67
2023/02/19 00:05:22;;;;;;;14.43;3.17;;;;;;;-142.75;100.00;77359.72;4974934;28;20386;-67
2023/02/19 00:07:47;;;;;;;12.52;3.97;;;;;;;-142.75;100.00;77365.63;4993423;28;20027;-67
2023/02/19 00:10:12;;;;;;;22.30;3.78;;;;;;;-142.75;100.00;77373.50;4993588;28;20026;-67
2023/02/19 00:12:38;;;;;;;14.75;2.95;;;;;;;-142.75;100.00;77377.44;4993467;28;20065;-67
2023/02/19 00:15:03;;;;;;;;;;;;;;;-142.75;100.00;77377.44;4993867;28;20097;-67
2023/02/19 00:17:30;;;;;;;12.18;2.60;;;;;;;-142.75;100.00;77389.25;4993453;28;19909;-67
2023/02/19 00:19:55;;;;;;;14.30;2.55;;;;;;;-142.75;100.00;77397.13;4992884;28;20030;-67
2023/02/19 00:22:21;;;;;;;20.92;3.15;;;;;;;-142.75;100.00;77395.16;4975884;28;20026;-67
2023/02/19 00:24:47;;;;;;;18.70;2.50;;;;;;;-142.75;100.00;77401.06;4993153;28;20022;-67
2023/02/19 00:27:12;;;;;;;20.65;2.90;;;;;;;-142.75;100.00;77391.22;4975828;28;20113;-67
2023/02/19 00:29:38;;;;;;;16.23;2.80;;;;;;;-142.75;100.00;77393.19;4992841;28;20110;-67
2023/02/19 00:32:03;;;;;;;20.60;3.00;;;;;;;-142.75;100.00;77403.03;4993383;28;20026;-67
2023/02/19 00:34:29;;;;;;;12.40;2.60;;;;;;;-142.75;100.00;77397.13;4975632;28;20022;-66
2023/02/19 00:36:54;;;;;;;18.98;3.40;;;;;;;-142.75;100.00;77406.97;4993099;28;20030;-67
2023/02/19 00:39:20;;;;;;;;;;;;;;;-142.75;100.00;77389.25;4993284;28;20043;-66
2023/02/19 00:41:46;;;;;;;18.58;2.53;;;;;;;-142.75;100.00;77408.94;4993095;28;20004;-67
2023/02/19 00:44:12;;;;;;;6.10;2.08;;;;;;;-142.75;100.00;77408.94;4993025;28;20037;-67
2023/02/19 00:46:40;;;;;;;10.40;2.33;;;;;;;-142.75;100.00;77414.84;4992827;28;20050;-67
2023/02/19 00:49:07;;;;;;;15.38;2.17;;;;;;;-142.75;100.00;77416.81;4992412;28;20025;-67
2023/02/19 00:51:35;;;;;;;8.02;2.10;;;;;;;-142.75;100.00;77405.00;4975440;28;20101;-66
2023/02/19 00:54:01;;;;;;;12.93;2.60;;;;;;;-142.75;100.00;77406.97;4991948;28;20040;-67
2023/02/19 00:56:27;;;;;;;20.98;2.65;;;;;;;-142.75;100.00;77406.97;4992827;28;20360;-67
2023/02/19 00:58:52;;;;;;;10.35;1.85;;;;;;;-142.75;100.00;77424.69;4990669;28;20037;-66
2023/02/19 01:01:19;;;;;;;13.35;2.40;;;;;;;-142.75;100.00;77420.75;4992682;28;20088;-65
2023/02/19 01:03:45;;;;;;;13.23;2.40;;;;;;;-142.75;100.00;77416.81;4990472;28;20041;-65
2023/02/19 01:06:13;;;;;;;11.07;2.58;;;;;;;-142.75;100.00;77428.63;4992292;28;20033;-65
2023/02/19 01:08:39;;;;;;;15.57;2.20;;;;;;;-142.75;100.00;77418.78;4993255;28;20022;-67
2023/02/19 01:11:06;;;;;;;9.55;3.00;;;;;;;-142.75;100.00;77422.72;4974681;28;20510;-68
2023/02/19 01:13:32;;;;;;;13.98;3.00;;;;;;;-142.75;100.00;77424.69;4997401;28;20435;-67
2023/02/19 01:16:05;;;;;;;15.13;2.60;;;;;;;-142.75;100.00;77420.75;4991550;28;20110;-67
2023/02/19 01:18:31;;;;;;;10.43;2.08;;;;;;;-142.75;100.00;77434.53;4973993;28;20030;-67
2023/02/19 01:20:56;;;;;;;7.13;2.25;;;;;;;-142.75;100.00;77424.69;4992271;28;20026;-68
2023/02/19 01:23:22;;;;;;;9.98;2.00;;;;;;;-142.75;100.00;77420.75;4991344;28;20026;-67
2023/02/19 01:25:47;;;;;;;7.78;2.17;;;;;;;-142.75;100.00;77416.81;4991600;28;20416;-67
2023/02/19 01:28:12;;;;;;;12.63;2.15;;;;;;;-142.75;100.00;77426.66;4977169;28;20440;-68
2023/02/19 01:30:38;;;;;;;14.20;2.03;;;;;;;-142.75;100.00;77414.84;4996772;28;20104;-68
2023/02/19 01:33:07;;;;;;;19.23;2.75;;;;;;;-142.75;100.00;77424.69;4991553;28;20480;-67
2023/02/19 01:35:33;;;;;;;10.35;1.70;;;;;;;-142.75;100.00;77428.63;4992741;28;20386;-67
2023/02/19 01:37:59;;;;;;;14.30;2.38;;;;;;;-142.75;100.00;77410.91;4991273;28;20018;-67
2023/02/19 01:40:24;;;;;;;13.43;2.05;;;;;;;-142.75;100.00;77428.63;4993166;28;20368;-67
2023/02/19 01:42:50;;;;;;;11.80;2.08;;;;;;;-142.75;100.00;77436.50;4993553;28;20392;-65
2023/02/19 01:45:37;;;;;;;10.65;2.17;;;;;;;-142.75;100.00;77420.75;4994377;28;20048;-67
2023/02/19 01:48:08;;;;;;;;;;;;;;;-142.75;100.00;77410.91;4993847;28;20088;-67
2023/02/19 01:50:40;;;;;;;10.18;2.28;;;;;;;-142.75;100.00;77401.06;4990639;28;20008;-67
2023/02/19 01:53:08;;;;;;;15.55;2.78;;;;;;;-142.75;100.00;77416.81;4991635;28;20106;-67
2023/02/19 01:55:34;;;;;;;11.85;2.25;;;;;;;-142.75;100.00;77424.69;4990738;28;20400;-66
2023/02/19 01:58:01;;;;;;;15.63;2.42;;;;;;;-142.75;100.00;77428.63;4990327;28;20096;-67
2023/02/19 02:00:26;;;;;;;18.05;2.30;;;;;;;-142.75;100.00;77424.69;4990919;28;20018;-68
2023/02/19 02:02:54;;;;;;;14.93;2.65;;;;;;;-142.75;100.00;77412.88;4991012;28;20690;-66
2023/02/19 02:05:50;;;;;;;17.30;2.65;;;;;;;-142.75;100.00;77420.75;4973916;28;20554;-66
2023/02/19 02:11:01;;;;;;;12.38;1.90;;;;;;;-142.75;100.00;77452.25;4992366;28;20037;-67
2023/02/19 02:13:27;;;;;;;9.85;2.00;;;;;;;-142.75;100.00;77442.41;4991771;28;20030;-67
2023/02/19 02:16:03;;;;;;;12.18;2.35;;;;;;;-142.75;100.00;77448.34;4991917;28;20022;-67
2023/02/19 02:18:34;;;;;;;13.43;2.08;;;;;;;-142.75;100.00;77446.34;4991329;28;20081;-65
2023/02/19 02:21:32;;;;;;;18.65;2.67;;;;;;;-142.75;100.00;77446.34;4974355;28;20033;-67
2023/02/19 02:24:16;;;;;;;8.98;2.28;;;;;;;-142.75;100.00;77430.59;4974147;28;20022;-68
2023/02/19 02:27:14;;;;;;;9.10;2.03;;;;;;;-142.75;100.00;77432.56;4974149;28;20238;-68
2023/02/19 02:30:17;;;;;;;13.48;2.10;;;;;;;-142.75;100.00;77436.50;4940150;28;20571;-67
2023/02/19 02:33:17;;;;;;;17.17;3.17;;;;;;;-142.75;100.00;77446.34;4990177;28;20105;-67
2023/02/19 02:35:46;;;;;;;7.07;1.90;;;;;;;-142.75;100.00;77434.53;4958071;28;20385;-67
2023/02/19 02:38:13;;;;;;;10.85;1.95;;;;;;;-142.75;100.00;77436.50;4973326;28;20034;-68
2023/02/19 02:40:42;;;;;;;12.93;2.17;;;;;;;-142.75;100.00;77438.47;4991434;28;20058;-67
2023/02/19 02:43:08;;;;;;;12.20;1.95;;;;;;;-142.75;100.00;77444.38;4972615;28;20527;-67
2023/02/19 02:45:33;;;;;;;16.73;2.25;;;;;;;-142.75;100.00;77440.44;4991304;28;20097;-67
2023/02/19 02:48:03;;;;;;;14.77;1.98;;;;;;;-142.75;100.00;77460.13;4991047;28;20431;-67
2023/02/19 02:50:35;;;;;;;10.45;2.47;;;;;;;-142.75;100.00;77452.25;4991166;28;20022;-67
2023/02/19 02:55:53;;;;;;;10.38;1.88;;;;;;;-142.75;100.00;77470.00;4991287;28;20088;-67
2023/02/19 02:58:21;;;;;;;8.98;2.08;;;;;;;-142.75;100.00;77464.09;4990757;28;20014;-66
2023/02/19 03:03:40;;;;;;;9.63;1.75;;;;;;;-142.75;100.00;77483.78;4991561;28;20037;-67
2023/02/19 03:06:10;;;;;;;10.80;1.90;;;;;;;-142.75;100.00;77483.78;4991033;28;20068;-67
2023/02/19 03:08:42;;;;;;;11.05;2.33;;;;;;;-142.75;100.00;77475.91;4971766;28;20026;-67
2023/02/19 03:19:59;;;;;;;9.95;1.58;;;;;;;-142.75;100.00;77479.84;4994696;28;20037;-67
2023/02/19 03:22:29;;;;;;;19.52;1.92;;;;;;;-142.75;100.00;77481.81;4994977;28;20642;-67
2023/02/19 03:28:11;;;;;;;12.27;2.00;;;;;;;-142.75;100.00;77491.66;4994962;28;20037;-67
2023/02/19 03:30:41;;;;;;;9.60;1.75;;;;;;;-142.75;100.00;77489.69;4994601;28;20073;-67
2023/02/19 03:33:14;;;;;;;12.95;2.30;;;;;;;-142.75;100.00;77475.91;4977138;28;20025;-68
2023/02/19 03:35:52;;;;;;;10.35;1.50;;;;;;;-142.75;100.00;77485.75;4994637;28;20023;-67
2023/02/19 03:38:39;;;;;;;7.60;1.60;;;;;;;-142.75;100.00;77491.66;4976750;28;20114;-67
2023/02/19 03:41:32;;;;;;;9.27;1.90;;;;;;;-142.75;100.00;77497.56;4977189;28;20022;-67
2023/02/19 03:44:15;;;;;;;8.52;1.80;;;;;;;-142.75;100.00;77495.59;4994557;28;20399;-67
2023/02/19 03:46:55;;;;;;;8.80;1.70;;;;;;;-142.75;100.00;77501.50;4994469;28;20500;-66
2023/02/19 03:49:31;;;;;;;10.50;1.80;;;;;;;-142.75;100.00;77507.41;4994099;28;20018;-65
2023/02/19 03:52:32;;;;;;;13.00;2.70;;;;;;;-142.75;100.00;77507.41;4994377;28;20018;-68
2023/02/19 03:55:21;;;;;;;15.20;1.75;;;;;;;-142.75;100.00;77523.16;4983568;28;20044;-67
2023/02/19 03:57:49;;;;;;;14.50;2.25;;;;;;;-142.75;100.00;77519.22;4976581;28;20048;-67
2023/02/19 04:00:19;;;;;;;13.98;2.28;;;;;;;-142.75;100.00;77527.09;4994194;28;20054;-66
2023/02/19 04:02:52;;;;;;;6.80;1.48;;;;;;;-142.75;100.00;77521.19;4976682;28;20026;-67
2023/02/19 04:05:21;;;;;;;16.48;2.33;;;;;;;-142.75;100.00;77527.09;4994226;28;20058;-67
2023/02/19 04:07:52;;;;;;;7.82;1.67;;;;;;;-142.75;100.00;77546.78;4993874;28;20022;-66
2023/02/19 04:10:18;;;;;;;8.73;1.65;;;;;;;-142.75;100.00;77538.91;4976904;28;20399;-67
2023/02/19 04:12:50;;;;;;;12.02;2.65;;;;;;;-142.75;100.00;77562.53;4994073;28;20022;-67
2023/02/19 04:15:21;;;;;;;7.78;1.90;;;;;;;-142.75;100.00;77550.72;4976407;28;20030;-67
2023/02/19 04:17:57;;;;;;;7.85;1.58;;;;;;;-142.75;100.00;77554.66;4976326;28;20033;-68
2023/02/19 04:20:26;;;;;;;8.05;1.70;;;;;;;-142.75;100.00;77554.66;4976476;28;20498;-67
2023/02/19 04:22:52;;;;;;;10.48;2.20;;;;;;;-142.75;100.00;77556.63;4993828;28;20541;-67
2023/02/19 04:25:18;;;;;;;11.30;1.98;;;;;;;-142.75;100.00;77574.34;4993749;28;20038;-67
2023/02/19 04:27:44;;;;;;;15.85;2.88;;;;;;;-142.75;100.00;77574.34;4974874;28;20077;-67
2023/02/19 04:30:15;;;;;;;10.18;1.83;;;;;;;-142.75;100.00;77572.38;4993562;28;20569;-68
2023/02/19 04:32:40;;;;;;;13.55;1.67;;;;;;;-142.75;100.00;77582.22;4993695;28;20026;-67
2023/02/19 04:35:06;;;;;;;12.27;1.88;;;;;;;-142.75;100.00;77580.25;4993589;28;20049;-67
2023/02/19 04:37:31;;;;;;;13.10;2.10;;;;;;;-142.75;100.00;77594.03;4978852;28;20019;-68
2023/02/19 04:39:56;;;;;;;12.95;1.70;;;;;;;-142.75;100.00;77580.25;4993127;28;20026;-67
2023/02/19 04:42:21;;;;;;;;;;;;;;;-142.75;100.00;77574.34;4976440;28;20104;-67
2023/02/19 04:44:47;;;;;;;7.25;1.58;;;;;;;-142.75;100.00;77584.19;4975592;28;19909;-67
2023/02/19 04:47:12;;;;;;;7.65;1.55;;;;;;;-142.75;100.00;77590.09;4993225;28;20030;-67
2023/02/19 04:49:37;;;;;;;13.95;2.53;;;;;;;-142.75;100.00;77597.97;4975736;28;20049;-67
2023/02/19 04:52:03;;;;;;;;;;;;;;;-142.75;100.00;77590.09;4993651;28;20022;-67
2023/02/19 04:54:28;;;;;;;16.85;2.72;;;;;;;-142.75;100.00;77590.09;4993471;28;19916;-67
2023/02/19 04:56:53;;;;;;;11.10;1.83;;;;;;;-142.75;100.00;77594.03;4993099;28;20030;-67
2023/02/19 04:59:19;;;;;;;9.48;1.80;;;;;;;-142.75;100.00;77601.91;4992767;28;20034;-66
2023/02/19 05:01:44;;;;;;;;;;;;;;;-142.75;100.00;77597.97;4993532;28;20026;-67
2023/02/19 05:04:09;;;;;;;7.85;1.50;;;;;;;-142.75;100.00;77613.72;4991893;28;19910;-67
2023/02/19 05:06:35;;;;;;;;;;;;;;;-142.75;100.00;77613.72;4976060;28;20053;-68
2023/02/19 05:09:00;;;;;;;11.00;2.30;;;;;;;-142.75;100.00;77621.59;4992600;28;19910;-67
2023/02/19 05:11:25;;;;;;;10.75;2.00;;;;;;;-142.75;100.00;77625.53;4992835;28;20379;-67
2023/02/19 05:13:50;;;;;;;;;;;;;;;-142.75;100.00;77641.28;4993213;28;20072;-67
2023/02/19 05:16:16;;;;;;;5.20;1.45;;;;;;;-142.75;100.00;77645.22;4975407;28;20386;-67
2023/02/19 05:18:42;;;;;;;;;;;;;;;-142.75;100.00;77635.38;4975479;28;20026;-68
2023/02/19 05:21:08;;;;;;;8.93;1.85;;;;;;;-142.75;100.00;77641.28;4992851;28;19909;-67
2023/02/19 05:23:34;;;;;;;10.93;1.83;;;;;;;-142.75;100.00;77645.22;4992648;28;20034;-67
2023/02/19 05:26:04;;;;;;;10.60;2.15;;;;;;;-142.75;100.00;77660.97;4975077;28;20490;-66
2023/02/19 05:28:29;;;;;;;8.55;1.98;;;;;;;-142.75;100.00;77653.09;4992705;28;20357;-67
2023/02/19 05:30:56;;;;;;;16.65;2.30;;;;;;;-142.75;100.00;77660.97;4975116;28;20037;-66
2023/02/19 05:33:24;;;;;;;8.75;2.05;;;;;;;-142.75;100.00;77676.72;4992504;28;20065;-67
2023/02/19 05:35:52;;;;;;;8.23;1.88;;;;;;;-142.75;100.00;77684.59;4992373;28;20020;-66
2023/02/19 05:38:18;;;;;;;9.43;2.13;;;;;;;-142.75;100.00;77649.16;4991920;28;20041;-65
2023/02/19 05:40:45;;;;;;;11.50;2.35;;;;;;;-142.75;100.00;77666.88;4974560;28;20030;-67
2023/02/19 05:43:11;;;;;;;10.13;3.10;;;;;;;-142.75;100.00;77653.09;4974818;28;20073;-67
2023/02/19 05:45:37;;;;;;;11.55;1.98;;;;;;;-142.75;100.00;77659.00;4992181;28;20064;-67
2023/02/19 05:48:03;;;;;;;9.88;2.35;;;;;;;-142.75;100.00;77660.97;4992048;28;20105;-67
2023/02/19 05:50:31;;;;;;;11.15;2.63;;;;;;;-142.75;100.00;77668.84;4992022;28;20022;-67
2023/02/19 05:52:59;;;;;;;10.52;3.28;;;;;;;-142.75;100.00;77666.88;4992082;28;20071;-67
2023/02/19 05:55:24;;;;;;;11.60;2.60;;;;;;;-142.75;100.00;77655.06;4992020;28;20475;-67
2023/02/19 05:57:49;;;;;;;10.98;2.25;;;;;;;-142.75;100.00;77676.72;4991578;28;20061;-67
2023/02/19 06:00:16;;;;;;;;;;;;;;;-142.75;100.00;77668.84;4975482;28;20117;-67
2023/02/19 06:02:42;;;;;;;11.23;2.75;;;;;;;-142.75;100.00;77657.03;4974436;28;19910;-67
2023/02/19 06:05:08;;;;;;;7.93;2.53;;;;;;;-142.75;100.00;77678.69;4974329;28;20034;-67
2023/02/19 06:07:33;;;;;;;16.10;2.60;;;;;;;-142.75;100.00;77666.88;4991841;28;20068;-68
2023/02/19 06:09:59;;;;;;;10.13;2.50;;;;;;;-142.75;100.00;77684.59;4989052;28;20050;-67
2023/02/19 06:12:24;;;;;;;12.98;2.80;;;;;;;-142.75;100.00;77688.53;4991892;28;20030;-68
2023/02/19 06:14:50;;;;;;;14.93;2.92;;;;;;;-142.75;100.00;77680.66;4974280;28;20046;-66
2023/02/19 06:17:15;;;;;;;10.77;3.00;;;;;;;-142.75;100.00;77680.66;4991806;28;20035;-67
2023/02/19 06:19:41;;;;;;;7.03;2.30;;;;;;;-142.75;100.00;77690.50;4991437;28;20030;-69
2023/02/19 06:22:07;;;;;;;8.70;3.28;;;;;;;-142.75;100.00;77696.41;4991844;28;20022;-67
2023/02/19 06:24:32;;;;;;;;;;;;;;;-142.75;100.00;77692.47;4974550;28;20056;-67
2023/02/19 06:26:57;;;;;;;9.15;2.65;;;;;;;-142.75;100.00;77700.34;4991704;28;19918;-68
2023/02/19 06:29:23;;;;;;;13.60;2.58;;;;;;;-142.75;100.00;77698.38;4973662;28;20026;-67
2023/02/19 06:31:49;;;;;;;10.05;2.55;;;;;;;-142.75;100.00;77708.22;4974074;28;20053;-66
2023/02/19 06:34:14;;;;;;;11.63;2.90;;;;;;;-142.75;100.00;77716.09;4991366;28;20034;-66
2023/02/19 06:36:39;;;;;;;11.80;2.60;;;;;;;-142.75;100.00;77723.97;4991514;28;20023;-67
2023/02/19 06:39:05;;;;;;;9.82;3.33;;;;;;;-142.75;100.00;77716.09;4991448;28;20034;-66
2023/02/19 06:41:30;;;;;;;15.15;3.72;;;;;;;-142.75;100.00;77725.97;4989868;28;20037;-68
2023/02/19 06:43:57;;;;;;;10.80;2.72;;;;;;;-142.75;100.00;77714.13;4994643;28;20030;-66
2023/02/19 06:46:22;;;;;;;15.73;3.10;;;;;;;-142.75;100.00;77731.88;4991331;28;20030;-69
2023/02/19 06:48:48;;;;;;;12.23;2.97;;;;;;;-142.75;100.00;77718.06;4990989;28;20022;-67
2023/02/19 06:51:25;;;;;;;12.63;3.40;;;;;;;-142.75;100.00;77723.97;4990525;28;20487;-67
2023/02/19 06:53:51;;;;;;;17.90;2.85;;;;;;;-142.75;100.00;77706.25;4973809;28;20022;-68
2023/02/19 06:56:41;;;;;;;16.27;3.42;;;;;;;-142.75;100.00;77716.09;4991241;28;20018;-69
2023/02/19 06:59:10;;;;;;;10.85;2.88;;;;;;;-142.75;100.00;77727.94;4990732;28;20092;-67
2023/02/19 07:01:37;;;;;;;8.45;2.83;;;;;;;-142.75;100.00;77718.06;4991265;28;20029;-67
2023/02/19 07:04:03;;;;;;;9.95;2.95;;;;;;;-142.75;100.00;77727.94;4988775;28;20030;-66
2023/02/19 07:06:29;;;;;;;8.10;2.47;;;;;;;-142.75;100.00;77727.94;4989387;28;20025;-67
2023/02/19 07:08:56;;;;;;;14.63;3.15;;;;;;;-142.75;100.00;77731.88;4990788;28;20060;-66
2023/02/19 07:11:23;;;;;;;11.20;2.72;;;;;;;-142.75;100.00;77735.81;4973455;28;20027;-66
2023/02/19 07:13:54;;;;;;;11.20;2.78;;;;;;;-142.75;100.00;77731.88;4991092;28;20025;-66
2023/02/19 07:16:19;;;;;;;26.27;3.65;;;;;;;-142.75;100.00;77757.47;4991070;28;20026;-66
2023/02/19 07:18:44;;;;;;;14.80;3.35;;;;;;;-142.75;100.00;77783.06;4990503;28;20033;-68
2023/02/19 07:21:13;;;;;;;15.32;3.03;;;;;;;-142.75;100.00;77755.50;4991060;28;20029;-67
2023/02/19 07:23:39;;;;;;;25.92;2.92;;;;;;;-142.75;100.00;77751.56;4973415;28;20033;-67
2023/02/19 07:26:08;;;;;;;14.88;3.30;;;;;;;-142.75;100.00;77763.38;4990893;28;20023;-67
2023/02/19 07:28:34;;;;;;;10.43;3.42;;;;;;;-142.75;100.00;77771.25;4988397;28;20472;-67
2023/02/19 07:31:00;;;;;;;11.80;2.67;;;;;;;-142.75;100.00;77757.47;4989270;28;20037;-68
2023/02/19 07:33:26;;;;;;;15.18;3.20;;;;;;;-142.75;100.00;77781.09;4990927;28;20027;-67
2023/02/19 07:35:51;;;;;;;12.05;2.83;;;;;;;-142.75;100.00;77775.19;4989503;28;20029;-68
2023/02/19 07:38:21;;;;;;;9.32;2.22;;;;;;;-142.75;100.00;77755.50;4990675;28;20026;-65
2023/02/19 07:40:55;;;;;;;5.18;2.15;;;;;;;-142.75;100.00;77788.97;4973459;28;20076;-68
2023/02/19 07:43:22;;;;;;;9.73;2.90;;;;;;;-142.75;100.00;77788.97;4990865;28;20050;-67
2023/02/19 07:45:48;;;;;;;10.75;2.70;;;;;;;-142.75;100.00;77787.00;4990598;28;20101;-66
2023/02/19 07:48:13;;;;;;;8.80;2.70;;;;;;;-142.75;100.00;77800.78;4973038;28;20125;-67
2023/02/19 07:50:39;;;;;;;10.38;2.72;;;;;;;-142.75;100.00;77814.56;4973273;28;20022;-67
2023/02/19 07:53:04;;;;;;;8.50;2.78;;;;;;;-142.75;100.00;77818.50;4990795;28;20186;-68
2023/02/19 07:55:31;;;;;;;16.33;2.80;;;;;;;-142.75;100.00;77814.56;4990722;28;20030;-67
2023/02/19 07:57:58;;;;;;;12.05;2.72;;;;;;;-142.75;100.00;77818.50;4990361;28;20395;-68
2023/02/19 08:00:24;;;;;;;12.80;2.70;;;;;;;-142.75;100.00;77816.53;4990535;28;20027;-66
2023/02/19 08:02:59;;;;;;;9.43;2.60;;;;;;;-142.75;100.00;77828.34;4991582;28;20026;-65
2023/02/19 08:05:30;;;;;;;7.60;2.60;;;;;;;-142.75;100.00;77826.38;4994027;28;20046;-66
2023/02/19 08:07:56;;;;;;;8.90;2.75;;;;;;;-142.75;100.00;77814.56;4993859;28;20053;-66
2023/02/19 08:16:01;;;;;;;9.75;2.13;;;;;;;-142.75;100.00;77834.25;4994170;28;20036;-68
2023/02/19 08:18:29;;;;;;;8.73;2.78;;;;;;;-142.75;100.00;77840.16;4993496;28;20161;-66
2023/02/19 08:20:56;;;;;;;10.00;2.40;;;;;;;-142.75;100.00;77834.25;4976271;28;20145;-66
2023/02/19 08:23:21;;;;;;;13.90;3.03;;;;;;;-142.75;100.00;77832.28;4993241;28;20375;-66
2023/02/19 08:25:48;;;;;;;10.90;2.67;;;;;;;-142.75;100.00;77838.19;4993030;28;20029;-67
2023/02/19 08:28:14;;;;;;;9.98;2.67;;;;;;;-142.75;100.00;77818.50;4990584;28;20024;-69
2023/02/19 08:30:43;;;;;;;7.82;2.53;;;;;;;-142.75;100.00;77830.31;4993048;28;20085;-66
2023/02/19 08:33:10;;;;;;;11.75;3.05;;;;;;;-142.75;100.00;77826.38;4990504;28;20028;-67
2023/02/19 08:35:35;;;;;;;7.88;2.05;;;;;;;-142.75;100.00;77810.63;4975295;28;20116;-67
2023/02/19 08:38:01;;;;;;;15.45;2.78;;;;;;;-142.75;100.00;77804.72;4991966;28;20066;-67
2023/02/19 08:40:26;;;;;;;;;;;;;;;-142.75;100.00;77804.72;4992698;28;20050;-66
2023/02/19 08:42:52;;;;;;;12.23;2.60;;;;;;;-142.75;100.00;77806.69;4993018;28;19909;-67
2023/02/19 08:45:17;;;;;;;11.40;1.98;;;;;;;-142.75;100.00;77790.94;4993695;28;20022;-67
2023/02/19 08:47:43;;;;;;;9.77;2.50;;;;;;;-142.75;100.00;77818.50;4993101;28;20018;-69
2023/02/19 08:50:09;;;;;;;7.32;1.60;;;;;;;-142.75;100.00;77818.50;4993048;28;20026;-66
2023/02/19 08:52:35;;;;;;;13.55;2.00;;;;;;;-142.75;100.00;77834.25;4993416;28;20437;-66
2023/02/19 08:55:02;;;;;;;13.65;2.65;;;;;;;-142.75;100.00;77832.28;4993300;28;20483;-67
2023/02/19 08:57:28;;;;;;;10.40;3.08;;;;;;;-142.75;100.00;77830.31;4993007;28;20096;-65
2023/02/19 08:59:55;;;;;;;12.25;2.63;;;;;;;-142.75;100.00;77834.25;4991429;28;20057;-67
2023/02/19 09:02:20;;;;;;;11.35;2.00;;;;;;;-142.75;100.00;77850.00;4975466;28;20025;-66
2023/02/19 09:04:46;;;;;;;8.32;2.05;;;;;;;-142.75;100.00;77848.03;4993135;28;20018;-66
2023/02/19 09:07:11;;;;;;;;;;;;;;;-142.75;100.00;77830.31;4993085;28;20019;-64
2023/02/19 09:09:37;;;;;;;14.02;3.00;;;;;;;-142.75;100.00;77836.22;4992561;28;19945;-66
2023/02/19 09:12:06;;;;;;;10.98;2.97;;;;;;;-142.75;100.00;77822.44;4992915;28;20041;-65
2023/02/19 09:14:33;;;;;;;10.23;2.90;;;;;;;-142.75;100.00;77830.31;4992180;28;20109;-66
2023/02/19 09:16:59;;;;;;;10.20;2.22;;;;;;;-142.75;100.00;77830.31;4992877;28;20018;-65
2023/02/19 09:19:25;;;;;;;15.80;2.53;;;;;;;-142.75;100.00;77846.06;4991172;28;20623;-66
2023/02/19 09:21:50;;;;;;;14.18;3.15;;;;;;;-142.75;100.00;77838.19;4992775;28;20109;-65
2023/02/19 09:24:16;;;;;;;13.88;2.63;;;;;;;-142.75;100.00;77848.03;4992588;28;21498;-65
2023/02/19 09:26:41;;;;;;;9.40;2.35;;;;;;;-142.75;100.00;77832.28;4990429;28;20033;-69
2023/02/19 09:29:06;;;;;;;;;;;;;;;-142.75;100.00;77818.50;4993270;28;20104;-66
2023/02/19 09:31:33;;;;;;;11.35;2.25;;;;;;;-142.75;100.00;77822.44;4990594;28;20016;-68
2023/02/19 09:33:59;;;;;;;10.32;1.90;;;;;;;-142.75;100.00;77834.25;4988870;28;20026;-66
2023/02/19 09:36:24;;;;;;;12.07;2.13;;;;;;;-142.75;100.00;77832.28;4973869;28;21243;-66
2023/02/19 09:38:49;;;;;;;11.38;1.70;;;;;;;-142.75;100.00;77834.25;4990247;28;20025;-68
2023/02/19 09:41:45;;;;;;;8.57;1.88;;;;;;;-142.75;100.00;77836.22;4988849;28;20562;-66
2023/02/19 09:44:13;;;;;;;7.00;1.40;;;;;;;-142.75;100.00;77826.38;4988113;28;20104;-66
2023/02/19 09:46:50;;;;;;;8.48;1.88;;;;;;;-142.75;100.00;77808.66;4991188;28;20044;-68
2023/02/19 09:49:17;;;;;;;10.18;2.03;;;;;;;-142.75;100.00;77796.84;4987071;28;20499;-66
2023/02/19 09:51:47;;;;;;;12.27;1.67;;;;;;;-142.75;100.00;77788.97;4992018;28;20467;-69
2023/02/19 09:54:20;;;;;;;5.32;1.63;;;;;;;-142.75;100.00;77794.88;4992150;28;20076;-66
2023/02/19 09:56:46;;;;;;;8.95;1.50;;;;;;;-142.75;100.00;77790.94;4992194;28;20029;-66
2023/02/19 09:59:24;;;;;;;11.60;1.80;;;;;;;-142.75;100.00;77783.06;4971666;28;20062;-67
2023/02/19 10:02:00;;;;;;;10.25;1.60;;;;;;;-142.75;100.00;77804.72;4992144;28;20022;-66
2023/02/19 10:04:25;;;;;;;6.75;1.17;;;;;;;-142.75;100.00;77846.06;4992011;28;20037;-67
2023/02/19 10:06:51;;;;;;;3.55;1.00;;;;;;;-142.75;100.00;77879.53;4990548;28;20034;-66
2023/02/19 10:09:28;;;;;;;5.70;1.10;;;;;;;-142.75;100.00;77907.09;4991399;28;20541;-67
2023/02/19 10:11:55;;;;;;;3.47;1.27;;;;;;;-142.75;100.00;77889.38;4991883;28;20100;-69
2023/02/19 10:14:36;;;;;;;4.18;1.33;;;;;;;-142.75;100.00;77893.31;4974287;28;20479;-66
2023/02/19 10:17:04;;;;;;;3.05;1.10;;;;;;;-142.75;100.00;77928.78;4991719;28;20019;-66
2023/02/19 10:19:32;;;;;;;3.47;1.23;;;;;;;-142.75;100.00;77928.78;4991426;28;20018;-70
2023/02/19 10:21:59;;;;;;;6.53;1.08;;;;;;;-142.75;100.00;77913.03;4991676;28;20014;-66
2023/02/19 10:24:27;;;;;;;4.35;1.77;;;;;;;-142.75;100.00;77938.63;4987261;28;20041;-69
2023/02/19 10:26:53;;;;;;;5.43;0.60;;;;;;;-142.75;100.00;77952.41;4989182;28;20022;-66
2023/02/19 10:29:20;;;;;;;2.95;0.70;;;;;;;-142.75;100.00;77985.88;4992305;28;20110;-68
2023/02/19 10:31:46;;;;;;;1.55;0.65;;;;;;;-142.75;100.00;77966.19;4973501;28;20037;-69
2023/02/19 10:34:21;;;;;;;1.27;0.57;;;;;;;-142.75;100.00;77960.28;4991088;28;20403;-66
2023/02/19 10:36:52;;;;;;;2.67;0.45;;;;;;;-142.75;100.00;77995.72;4978220;28;20018;-70
2023/02/19 10:39:20;;;;;;;3.80;0.65;;;;;;;-142.75;100.00;78013.44;4991564;28;20489;-66
2023/02/19 10:41:47;;;;;;;12.30;1.67;;;;;;;-142.75;100.00;77995.72;4991675;28;20064;-65
2023/02/19 10:44:12;;;;;;;5.30;1.00;;;;;;;-142.75;100.00;78031.16;4991205;28;20041;-66
2023/02/19 10:46:43;;;;;;;3.90;0.60;;;;;;;-142.75;100.00;78062.69;4991381;28;20459;-66
2023/02/19 10:49:34;;;;;;;2.78;0.90;;;;;;;-142.75;100.00;78074.50;4990953;28;20032;-67
2023/02/19 10:52:09;;;;;;;5.47;0.82;;;;;;;-142.75;100.00;78076.47;4988839;28;20053;-65
2023/02/19 10:54:35;;;;;;;5.75;0.85;;;;;;;-142.75;100.00;78070.56;4992282;28;20044;-66
2023/02/19 10:57:19;;;;;;;1.77;0.68;;;;;;;-142.75;100.00;78056.78;4988484;28;20523;-68
2023/02/19 10:59:50;;;;;;;2.72;0.93;;;;;;;-142.75;100.00;78050.84;4988292;28;20403;-66
2023/02/19 11:02:18;;;;;;;6.45;1.00;;;;;;;-142.75;100.00;78046.91;4989724;28;20116;-66
2023/02/19 11:05:07;;;;;;;4.80;1.08;;;;;;;-142.75;100.00;78054.81;4973888;28;20105;-66
2023/02/19 11:07:35;;;;;;;2.45;0.90;;;;;;;-142.75;100.00;78050.84;4991981;28;20086;-65
2023/02/19 11:10:02;;;;;;;8.18;1.42;;;;;;;-142.75;100.00;78066.63;4990770;28;20022;-65
2023/02/19 11:12:33;;;;;;;6.15;1.52;;;;;;;-142.75;100.00;78037.06;4991184;28;20018;-67
2023/02/19 11:15:20;;;;;;;4.00;0.82;;;;;;;-142.75;100.00;78042.97;4991046;28;20021;-65
2023/02/19 11:17:54;;;;;;;4.20;0.85;;;;;;;-142.75;100.00;78068.59;4990813;28;20034;-67
2023/02/19 11:20:20;;;;;;;2.95;0.80;;;;;;;-142.75;100.00;78080.41;4990804;28;20018;-65
2023/02/19 11:22:45;;;;;;;3.75;0.85;;;;;;;-142.75;100.00;78060.72;4991054;28;20029;-65
2023/02/19 11:25:13;;;;;;;2.80;0.50;;;;;;;-142.75;100.00;78060.72;4991000;28;20148;-64
2023/02/19 11:28:08;;;;;;;2.88;0.80;;;;;;;-142.75;100.00;78056.78;4973336;28;20128;-65
2023/02/19 11:30:37;;;;;;;5.47;0.75;;;;;;;-142.75;100.00;78041.00;4990738;28;20018;-65
2023/02/19 11:33:15;;;;;;;3.00;0.77;;;;;;;-142.75;100.00;78009.50;4990900;28;20038;-64
2023/02/19 11:35:41;;;;;;;5.00;0.77;;;;;;;-142.75;100.00;77997.69;4990902;28;20085;-64
2023/02/19 11:38:09;;;;;;;3.83;0.70;;;;;;;-142.75;100.00;77978.00;4993124;28;20025;-65
2023/02/19 11:40:55;;;;;;;5.32;1.02;;;;;;;-142.75;100.00;77942.56;4994591;28;20026;-67
2023/02/19 11:43:50;;;;;;;2.45;0.52;;;;;;;-142.75;100.00;77950.44;4994579;28;20030;-66